createdAt,value
2018-07-12T00:00:12.132Z,20.50
2018-07-12T00:04:13.259Z,20.50
2018-07-12T00:08:14.367Z,20.30
2018-07-12T00:12:15.508Z,20.00
2018-07-12T00:16:16.782Z,19.40
2018-07-12T00:20:17.911Z,19.10
2018-07-12T00:24:19.034Z,19.60
2018-07-12T00:28:20.167Z,19.20
2018-07-12T00:32:21.304Z,19.80
2018-07-12T00:36:22.440Z,19.60
2018-07-12T00:40:23.571Z,19.80
2018-07-12T00:44:24.680Z,19.20
2018-07-12T00:48:25.830Z,18.80
2018-07-12T00:52:26.963Z,19.70
2018-07-12T00:56:28.111Z,19.50
2018-07-12T01:00:29.245Z,19.80
2018-07-12T01:04:30.399Z,19.90
2018-07-12T01:08:31.514Z,19.80
2018-07-12T01:12:32.619Z,19.40
2018-07-12T01:16:33.755Z,19.90
2018-07-12T01:20:35.015Z,19.90
2018-07-12T01:24:36.233Z,19.90
2018-07-12T01:28:37.355Z,19.60
2018-07-12T01:32:38.486Z,19.40
2018-07-12T01:36:39.566Z,19.60
2018-07-12T01:40:40.703Z,19.70
2018-07-12T01:44:41.827Z,19.90
2018-07-12T01:48:42.942Z,19.70
2018-07-12T01:52:44.738Z,20.10
2018-07-12T01:56:45.893Z,19.70
2018-07-12T02:00:47.372Z,19.70
2018-07-12T02:04:48.516Z,19.50
2018-07-12T02:08:49.621Z,19.10
2018-07-12T02:12:50.774Z,18.80
2018-07-12T02:16:51.890Z,19.50
2018-07-12T02:20:53.005Z,19.50
2018-07-12T02:24:54.218Z,19.80
2018-07-12T02:28:55.683Z,19.90
2018-07-12T02:32:56.795Z,19.90
2018-07-12T02:36:57.930Z,19.90
2018-07-12T02:40:59.043Z,19.40
2018-07-12T02:45:00.173Z,20.00
2018-07-12T02:49:01.286Z,19.60
2018-07-12T02:53:02.661Z,19.70
2018-07-12T02:57:03.778Z,19.80
2018-07-12T03:01:04.879Z,20.00
2018-07-12T03:05:06.013Z,19.60
2018-07-12T03:09:07.824Z,19.50
2018-07-12T03:13:08.911Z,19.50
2018-07-12T03:17:10.039Z,19.20
2018-07-12T03:21:11.182Z,20.00
2018-07-12T03:25:12.475Z,19.90
2018-07-12T03:29:13.573Z,19.60
2018-07-12T03:33:14.799Z,19.80
2018-07-12T03:37:15.919Z,20.10
2018-07-12T03:41:17.050Z,20.10
2018-07-12T03:45:18.179Z,20.20
2018-07-12T03:49:19.291Z,19.80
2018-07-12T03:53:20.435Z,20.20
2018-07-12T03:57:21.691Z,20.40
2018-07-12T04:01:22.824Z,20.70
2018-07-12T04:05:23.948Z,20.50
2018-07-12T04:09:25.088Z,20.70
2018-07-12T04:13:26.234Z,20.40
2018-07-12T04:17:30.315Z,20.00
2018-07-12T04:21:31.465Z,19.80
2018-07-12T04:25:32.595Z,20.10
2018-07-12T04:29:33.723Z,20.00
2018-07-12T04:33:34.838Z,20.40
2018-07-12T04:37:36.030Z,20.50
2018-07-12T04:41:37.174Z,20.20
2018-07-12T04:45:38.295Z,19.90
2018-07-12T04:49:39.408Z,20.30
2018-07-12T04:53:40.519Z,20.30
2018-07-12T04:57:41.652Z,20.10
2018-07-12T05:01:42.810Z,18.60
2018-07-12T05:05:43.921Z,19.30
2018-07-12T05:09:45.052Z,18.70
2018-07-12T05:13:46.248Z,19.30
2018-07-12T05:17:47.388Z,18.30
2018-07-12T05:21:48.525Z,18.30
2018-07-12T05:25:49.635Z,17.50
2018-07-12T05:29:50.759Z,18.10
2018-07-12T05:33:51.874Z,18.80
2018-07-12T05:37:54.011Z,17.60
2018-07-12T05:41:56.163Z,18.60
2018-07-12T05:45:58.447Z,18.50
2018-07-12T05:50:00.588Z,18.70
2018-07-12T05:54:02.919Z,19.30
2018-07-12T05:58:05.511Z,20.60
2018-07-12T06:02:21.538Z,20.40
2018-07-12T06:06:23.708Z,20.10
2018-07-12T06:10:26.173Z,20.50
2018-07-12T06:14:28.383Z,20.80
2018-07-12T06:18:30.580Z,21.80
2018-07-12T06:22:32.920Z,22.90
2018-07-12T06:26:35.105Z,23.10
2018-07-12T06:30:37.267Z,25.60
2018-07-12T06:34:40.111Z,25.30
2018-07-12T06:38:42.250Z,25.80
2018-07-12T06:42:44.495Z,26.00
2018-07-12T06:46:46.770Z,25.70
2018-07-12T06:50:48.920Z,24.90
2018-07-12T06:54:51.140Z,23.50
2018-07-12T06:58:53.396Z,21.30
2018-07-12T07:02:57.593Z,20.20
2018-07-12T07:06:59.747Z,21.90
2018-07-12T07:11:01.911Z,20.60
2018-07-12T07:15:04.184Z,22.10
2018-07-12T07:19:06.399Z,22.40
2018-07-12T07:23:09.370Z,22.00
2018-07-12T07:27:11.529Z,22.20
2018-07-12T07:31:14.672Z,21.70
2018-07-12T07:35:17.056Z,20.50
2018-07-12T07:39:19.286Z,22.30
2018-07-12T07:43:21.637Z,22.60
2018-07-12T07:47:23.765Z,23.30
2018-07-12T07:51:25.951Z,22.80
2018-07-12T07:55:28.179Z,23.20
2018-07-12T07:59:30.395Z,21.70
2018-07-12T08:03:32.553Z,20.20
2018-07-12T08:07:34.727Z,22.10
2018-07-12T08:11:36.923Z,23.20
2018-07-12T08:15:39.092Z,23.80
2018-07-12T08:19:41.465Z,23.50
2018-07-12T08:23:44.827Z,24.30
2018-07-12T08:27:58.669Z,22.90
2018-07-12T08:32:01.954Z,23.40
2018-07-12T08:36:04.322Z,24.10
2018-07-12T08:40:06.488Z,24.00
2018-07-12T08:44:08.635Z,24.30
2018-07-12T08:48:10.819Z,25.00
2018-07-12T08:52:13.043Z,24.90
2018-07-12T08:56:15.225Z,24.70
2018-07-12T09:00:17.412Z,25.40
2018-07-12T09:04:19.643Z,23.80
2018-07-12T09:08:21.799Z,24.20
2018-07-12T09:12:24.064Z,24.90
2018-07-12T09:16:26.217Z,25.00
2018-07-12T09:20:28.480Z,25.50
2018-07-12T09:24:30.968Z,24.50
2018-07-12T09:28:33.132Z,24.40
2018-07-12T09:32:35.284Z,25.40
2018-07-12T09:36:37.458Z,25.70
2018-07-12T09:40:39.637Z,25.20
2018-07-12T09:44:42.215Z,24.80
2018-07-12T09:48:45.652Z,25.00
2018-07-12T09:52:47.840Z,24.00
2018-07-12T09:57:01.270Z,25.00
2018-07-12T10:01:09.170Z,25.20
2018-07-12T10:05:17.146Z,23.80
2018-07-12T10:09:25.002Z,24.80
2018-07-12T10:13:31.873Z,25.50
2018-07-12T10:17:41.578Z,27.30
2018-07-12T10:21:43.735Z,26.80
2018-07-12T10:25:45.900Z,26.10
2018-07-12T10:29:48.076Z,26.30
2018-07-12T10:33:50.326Z,25.50
2018-07-12T10:37:52.500Z,25.60
2018-07-12T10:41:54.635Z,26.40
2018-07-12T10:45:56.795Z,26.70
2018-07-12T10:49:58.942Z,28.50
2018-07-12T10:54:01.088Z,28.70
2018-07-12T10:58:03.295Z,26.10
2018-07-12T11:02:05.558Z,27.50
2018-07-12T11:06:07.745Z,25.40
2018-07-12T11:10:09.903Z,26.10
2018-07-12T11:14:12.106Z,23.80
2018-07-12T11:18:14.479Z,24.80
2018-07-12T11:22:16.974Z,25.50
2018-07-12T11:26:19.222Z,25.60
2018-07-12T11:30:21.420Z,26.60
2018-07-12T11:34:23.562Z,27.90
2018-07-12T11:38:25.736Z,25.90
2018-07-12T11:42:27.906Z,28.70
2018-07-12T11:46:30.067Z,29.80
2018-07-12T11:50:32.288Z,28.60
2018-07-12T11:54:34.475Z,28.50
2018-07-12T11:58:36.708Z,28.70
2018-07-12T12:02:38.903Z,28.60
2018-07-12T12:06:41.061Z,25.60
2018-07-12T12:10:44.187Z,24.60
2018-07-12T12:14:46.405Z,25.00
2018-07-12T12:18:48.660Z,25.50
2018-07-12T12:22:50.865Z,24.80
2018-07-12T12:26:53.034Z,26.00
2018-07-12T12:30:55.948Z,28.70
2018-07-12T12:34:58.193Z,31.40
2018-07-12T12:39:00.403Z,30.40
2018-07-12T12:43:02.604Z,32.90
2018-07-12T12:47:05.623Z,32.70
2018-07-12T12:51:07.900Z,34.30
2018-07-12T12:55:10.385Z,34.20
2018-07-12T12:59:12.577Z,32.00
2018-07-12T13:03:14.764Z,31.60
2018-07-12T13:07:17.557Z,28.90
2018-07-12T13:11:20.671Z,29.50
2018-07-12T13:15:22.929Z,29.60
2018-07-12T13:19:25.202Z,30.60
2018-07-12T13:23:27.693Z,31.50
2018-07-12T13:27:29.956Z,32.90
2018-07-12T13:31:32.173Z,33.90
2018-07-12T13:35:34.372Z,35.30
2018-07-12T13:39:36.644Z,33.30
2018-07-12T13:43:38.910Z,30.30
2018-07-12T13:47:41.176Z,32.90
2018-07-12T13:51:44.247Z,34.80
2018-07-12T13:55:46.451Z,36.40
2018-07-12T13:59:48.666Z,32.40
2018-07-12T14:03:51.237Z,30.60
2018-07-12T14:07:53.567Z,32.70
2018-07-12T14:11:55.784Z,34.40
2018-07-12T14:15:58.010Z,35.10
2018-07-12T14:20:00.295Z,35.50
2018-07-12T14:24:02.562Z,31.70
2018-07-12T14:28:04.794Z,31.40
2018-07-12T14:32:07.013Z,30.10
2018-07-12T14:36:09.205Z,29.50
2018-07-12T14:40:11.417Z,27.60
2018-07-12T14:44:13.696Z,27.40
2018-07-12T14:48:15.969Z,27.60
2018-07-12T14:52:18.290Z,28.70
2018-07-12T14:56:20.560Z,29.70
2018-07-12T15:00:23.084Z,29.70
2018-07-12T15:04:25.449Z,30.10
2018-07-12T15:08:27.693Z,28.00
2018-07-12T15:12:29.990Z,28.10
2018-07-12T15:16:32.257Z,29.20
2018-07-12T15:20:34.440Z,29.40
2018-07-12T15:24:37.484Z,29.50
2018-07-12T15:28:39.715Z,30.60
2018-07-12T15:32:41.968Z,29.70
2018-07-12T15:36:44.185Z,30.80
2018-07-12T15:40:46.449Z,31.00
2018-07-12T15:44:48.745Z,30.50
2018-07-12T15:48:51.006Z,28.40
2018-07-12T15:52:53.525Z,29.00
2018-07-12T15:56:55.856Z,30.10
2018-07-12T16:00:58.121Z,30.50
2018-07-12T16:05:00.564Z,29.40
2018-07-12T16:09:03.828Z,28.60
2018-07-12T16:13:06.197Z,28.90
2018-07-12T16:17:09.189Z,29.50
2018-07-12T16:21:12.220Z,30.10
2018-07-12T16:25:14.461Z,30.30
2018-07-12T16:29:16.669Z,29.90
2018-07-12T16:33:18.943Z,29.10
2018-07-12T16:37:21.191Z,29.40
2018-07-12T16:41:23.465Z,30.30
2018-07-12T16:45:25.782Z,29.30
2018-07-12T16:49:27.994Z,28.70
2018-07-12T16:53:30.254Z,29.50
2018-07-12T16:57:32.671Z,29.50
2018-07-12T17:01:34.904Z,28.90
2018-07-12T17:05:37.229Z,29.70
2018-07-12T17:09:39.540Z,29.80
2018-07-12T17:13:41.795Z,30.00
2018-07-12T17:17:44.105Z,30.00
2018-07-12T17:21:47.372Z,29.10
2018-07-12T17:25:49.771Z,28.40
2018-07-12T17:29:51.931Z,28.30
2018-07-12T17:33:54.399Z,29.00
2018-07-12T17:37:56.563Z,28.40
2018-07-12T17:41:58.754Z,28.70
2018-07-12T17:46:00.983Z,28.80
2018-07-12T17:50:03.550Z,29.20
2018-07-12T17:54:05.840Z,28.90
2018-07-12T17:58:08.025Z,28.20
2018-07-12T18:02:10.331Z,28.70
2018-07-12T18:06:12.554Z,28.10
2018-07-12T18:10:15.109Z,28.50
2018-07-12T18:14:17.315Z,27.60
2018-07-12T18:18:19.425Z,25.70
2018-07-12T18:22:21.607Z,23.50
2018-07-12T18:26:23.795Z,21.40
2018-07-12T18:30:25.968Z,20.90
2018-07-12T18:34:28.195Z,20.70
2018-07-12T18:38:30.551Z,21.00
2018-07-12T18:42:32.818Z,21.30
2018-07-12T18:46:35.163Z,20.60
2018-07-12T18:50:37.341Z,20.90
2018-07-12T18:54:39.705Z,20.60
2018-07-12T18:58:41.869Z,21.10
2018-07-12T19:02:44.186Z,21.00
2018-07-12T19:06:46.386Z,20.90
2018-07-12T19:10:48.577Z,20.80
2018-07-12T19:14:50.791Z,21.70
2018-07-12T19:18:52.949Z,21.70
2018-07-12T19:22:55.246Z,23.00
2018-07-12T19:26:57.627Z,23.30
2018-07-12T19:30:59.866Z,23.90
2018-07-12T19:35:02.164Z,24.20
2018-07-12T19:39:05.776Z,24.40
2018-07-12T19:43:07.949Z,23.70
2018-07-12T19:47:10.142Z,24.20
2018-07-12T19:51:12.336Z,24.40
2018-07-12T19:55:14.661Z,23.40
2018-07-12T19:59:17.069Z,23.30
2018-07-12T20:03:19.262Z,23.50
2018-07-12T20:07:21.460Z,23.90
2018-07-12T20:11:23.635Z,24.00
2018-07-12T20:15:25.907Z,23.90
2018-07-12T20:19:28.070Z,23.80
2018-07-12T20:23:30.262Z,24.10
2018-07-12T20:27:32.499Z,24.20
2018-07-12T20:31:34.823Z,24.00
2018-07-12T20:35:37.027Z,24.20
2018-07-12T20:39:39.191Z,24.10
2018-07-12T20:43:41.380Z,24.30
2018-07-12T20:47:43.615Z,24.30
2018-07-12T20:51:45.808Z,24.30
2018-07-12T20:55:48.361Z,24.20
2018-07-12T20:59:50.588Z,24.20
2018-07-12T21:03:52.775Z,24.00
2018-07-12T21:07:54.967Z,23.90
2018-07-12T21:11:57.147Z,23.70
2018-07-12T21:15:59.315Z,24.00
2018-07-12T21:20:02.296Z,24.10
2018-07-12T21:24:04.804Z,24.10
2018-07-12T21:28:06.988Z,24.20
2018-07-12T21:32:09.146Z,24.10
2018-07-12T21:36:11.345Z,24.10
2018-07-12T21:40:13.885Z,24.20
2018-07-12T21:44:16.116Z,24.20
2018-07-12T21:48:18.267Z,24.10
2018-07-12T21:52:20.439Z,24.10
2018-07-12T21:56:22.624Z,23.90
2018-07-12T22:00:24.839Z,23.90
2018-07-12T22:04:27.009Z,23.60
2018-07-12T22:08:29.735Z,23.50
2018-07-12T22:12:31.911Z,23.50
2018-07-12T22:16:34.056Z,23.50
2018-07-12T22:20:36.359Z,23.40
2018-07-12T22:24:38.567Z,23.40
2018-07-12T22:28:40.794Z,23.30
2018-07-12T22:32:42.934Z,23.20
2018-07-12T22:36:45.128Z,23.20
2018-07-12T22:40:47.298Z,23.10
2018-07-12T22:44:50.441Z,23.10
2018-07-12T22:48:52.717Z,22.90
2018-07-12T22:52:54.815Z,22.60
2018-07-12T22:56:57.021Z,22.40
2018-07-12T23:00:59.143Z,22.40
2018-07-12T23:05:01.313Z,22.40
2018-07-12T23:13:17.874Z,22.40
2018-07-12T23:17:20.236Z,22.40
2018-07-12T23:21:22.379Z,22.30
2018-07-12T23:25:24.686Z,22.00
2018-07-12T23:29:26.873Z,21.70
2018-07-12T23:33:29.068Z,21.80
2018-07-12T23:37:31.243Z,21.90
2018-07-12T23:41:33.427Z,21.90
2018-07-12T23:45:35.559Z,21.90
2018-07-12T23:49:37.697Z,21.80
2018-07-12T23:53:39.819Z,21.80
2018-07-12T23:57:42.024Z,21.80
